Time;durP1;ratioP1;P1;durP2;ratioP2;P2;SDS_P1;SDS_P2;PMS_P1;PMS_P2;Temp;Humidity;BMP_temperature;BMP_pressure;BME280_temperature;BME280_humidity;BME280_pressure;Samples;Min_cycle;Max_cycle;Signal;HPM_P1;HPM_P2
2022/10/31 00:00:21;;;;;;;18.02;9.63;;;13.90;99.90;;;;;;5052249;28;20125;-66
2022/10/31 00:02:47;;;;;;;18.77;8.88;;;13.90;99.90;;;;;;5052520;28;20045;-66
2022/10/31 00:05:12;;;;;;;20.90;10.40;;;13.90;99.90;;;;;;5052179;28;20040;-66
2022/10/31 00:07:38;;;;;;;20.42;8.70;;;13.90;99.90;;;;;;5052478;28;20063;-66
2022/10/31 00:10:04;;;;;;;23.13;9.85;;;13.90;99.90;;;;;;5052165;28;20041;-66
2022/10/31 00:12:29;;;;;;;17.80;9.48;;;13.90;99.90;;;;;;5052298;28;20466;-66
2022/10/31 00:14:55;;;;;;;22.10;9.73;;;13.90;99.90;;;;;;5051731;28;20060;-66
2022/10/31 00:17:20;;;;;;;17.95;8.85;;;13.90;99.90;;;;;;5052303;28;20048;-66
2022/10/31 00:19:46;;;;;;;26.33;9.43;;;13.90;99.90;;;;;;5051885;28;20052;-66
2022/10/31 00:22:11;;;;;;;16.15;9.43;;;13.90;99.90;;;;;;5051995;28;20052;-66
2022/10/31 00:24:37;;;;;;;16.67;7.88;;;13.80;99.90;;;;;;5047615;28;20036;-66
2022/10/31 00:27:02;;;;;;;21.13;8.68;;;13.80;99.90;;;;;;5051748;28;20041;-66
2022/10/31 00:29:28;;;;;;;20.23;9.20;;;13.80;99.90;;;;;;5051904;28;20045;-66
2022/10/31 00:31:53;;;;;;;16.30;7.63;;;13.70;99.90;;;;;;5051779;28;20072;-66
2022/10/31 00:34:19;;;;;;;20.52;8.43;;;13.80;99.90;;;;;;5051263;28;20617;-66
2022/10/31 00:36:44;;;;;;;20.02;9.25;;;13.70;99.90;;;;;;5051175;28;20120;-66
2022/10/31 00:39:10;;;;;;;16.17;8.65;;;13.70;99.90;;;;;;5051651;28;20033;-66
2022/10/31 00:41:35;;;;;;;17.50;8.73;;;13.60;99.90;;;;;;5051828;28;20044;-66
2022/10/31 00:44:01;;;;;;;18.15;8.20;;;13.60;99.90;;;;;;5051106;28;20040;-66
2022/10/31 00:46:26;;;;;;;15.50;8.50;;;13.60;99.90;;;;;;5051567;28;20045;-66
2022/10/31 00:48:52;;;;;;;15.70;8.10;;;13.50;99.90;;;;;;5051300;28;20045;-66
2022/10/31 00:51:17;;;;;;;21.52;8.68;;;13.50;99.90;;;;;;5051720;28;20120;-66
2022/10/31 00:53:43;;;;;;;15.35;8.35;;;13.50;99.90;;;;;;5051370;28;20167;-66
2022/10/31 00:56:09;;;;;;;15.63;8.25;;;13.50;99.90;;;;;;5051413;28;20112;-66
2022/10/31 00:58:34;;;;;;;13.68;8.30;;;13.40;99.90;;;;;;5051065;28;20045;-67
2022/10/31 01:01:00;;;;;;;19.05;8.57;;;13.40;99.90;;;;;;5051259;28;20497;-66
2022/10/31 01:03:28;;;;;;;15.07;8.77;;;13.40;99.90;;;;;;5051480;28;20631;-66
2022/10/31 01:06:07;;;;;;;16.75;8.32;;;13.30;99.90;;;;;;5049853;28;20131;-66
2022/10/31 01:08:34;;;;;;;21.45;9.32;;;13.30;99.90;;;;;;5051251;28;20064;-66
2022/10/31 01:11:05;;;;;;;23.92;9.55;;;13.30;99.90;;;;;;5051183;28;20044;-66
2022/10/31 01:13:30;;;;;;;19.40;9.18;;;13.30;99.90;;;;;;5050992;28;20498;-66
2022/10/31 01:15:57;;;;;;;16.73;9.15;;;13.30;99.90;;;;;;5050897;28;20040;-66
2022/10/31 01:18:23;;;;;;;21.50;9.45;;;13.30;99.90;;;;;;5049655;28;20040;-66
2022/10/31 01:20:58;;;;;;;21.55;9.65;;;13.30;99.90;;;;;;5050944;28;20460;-66
2022/10/31 01:23:23;;;;;;;16.88;9.32;;;13.30;99.90;;;;;;5051105;28;20044;-66
2022/10/31 01:25:49;;;;;;;19.75;10.35;;;13.30;99.90;;;;;;5049232;28;20048;-67
2022/10/31 01:28:14;;;;;;;21.35;10.25;;;13.30;99.90;;;;;;5050889;28;20095;-66
2022/10/31 01:30:40;;;;;;;17.50;9.77;;;13.30;99.90;;;;;;5050694;28;20478;-66
2022/10/31 01:33:05;;;;;;;19.73;11.07;;;13.30;99.90;;;;;;5050650;28;20099;-66
2022/10/31 01:35:31;;;;;;;14.73;9.45;;;13.30;99.90;;;;;;5050684;28;20045;-66
2022/10/31 01:37:56;;;;;;;19.33;9.77;;;13.30;99.90;;;;;;5050782;28;20090;-66
2022/10/31 01:40:22;;;;;;;22.67;10.35;;;13.30;99.90;;;;;;5051055;28;20045;-66
2022/10/31 01:42:47;;;;;;;17.00;9.77;;;13.30;99.90;;;;;;5050603;28;20405;-66
2022/10/31 01:45:15;;;;;;;20.80;10.07;;;13.30;99.90;;;;;;5050496;28;20056;-66
2022/10/31 01:47:44;;;;;;;13.90;8.25;;;13.30;99.90;;;;;;5050715;28;20052;-66
2022/10/31 01:50:15;;;;;;;19.42;7.80;;;13.30;99.90;;;;;;5053851;28;20421;-66
2022/10/31 01:52:46;;;;;;;14.30;8.63;;;13.30;99.90;;;;;;5055164;28;20051;-66
2022/10/31 01:55:17;;;;;;;17.63;8.53;;;13.30;99.90;;;;;;5054511;28;20036;-66
2022/10/31 01:57:46;;;;;;;18.40;7.82;;;13.30;99.90;;;;;;5054333;28;20279;-66
2022/10/31 02:00:13;;;;;;;17.75;7.18;;;13.30;99.90;;;;;;5054441;28;20042;-66
2022/10/31 02:02:39;;;;;;;16.00;7.82;;;13.30;99.90;;;;;;5054845;28;20378;-66
2022/10/31 02:05:08;;;;;;;13.35;7.35;;;13.30;99.90;;;;;;5054311;28;20040;-66
2022/10/31 02:07:58;;;;;;;16.15;8.15;;;13.20;99.90;;;;;;5054613;28;20045;-66
2022/10/31 02:10:24;;;;;;;13.57;7.28;;;13.20;99.90;;;;;;5054041;28;20048;-66
2022/10/31 02:12:53;;;;;;;13.80;7.25;;;13.20;99.90;;;;;;5054659;28;20125;-66
2022/10/31 02:15:18;;;;;;;15.95;7.38;;;13.20;99.90;;;;;;5052596;28;20048;-66
2022/10/31 02:17:44;;;;;;;13.52;6.78;;;13.10;99.90;;;;;;5054259;28;20044;-66
2022/10/31 02:20:13;;;;;;;16.10;8.02;;;13.10;99.90;;;;;;5054029;28;20167;-66
2022/10/31 02:22:57;;;;;;;16.75;8.70;;;13.10;99.90;;;;;;5054440;28;20055;-66
2022/10/31 02:25:39;;;;;;;13.35;7.68;;;13.10;99.90;;;;;;5052930;28;20041;-66
2022/10/31 02:28:22;;;;;;;17.13;7.38;;;13.10;99.90;;;;;;5054006;28;20048;-66
2022/10/31 02:31:32;;;;;;;12.20;6.75;;;13.00;99.90;;;;;;5052870;28;20045;-66
2022/10/31 02:34:04;;;;;;;16.13;7.47;;;13.00;99.90;;;;;;5052787;28;20401;-66
2022/10/31 02:36:41;;;;;;;13.57;7.70;;;13.00;99.90;;;;;;5054229;28;20072;-67
2022/10/31 02:39:23;;;;;;;18.27;8.00;;;12.90;99.90;;;;;;5053967;28;20068;-67
2022/10/31 02:42:03;;;;;;;15.15;7.20;;;12.90;99.90;;;;;;5054531;28;20049;-66
2022/10/31 02:44:36;;;;;;;13.48;6.97;;;12.80;99.90;;;;;;5052459;28;20413;-66
2022/10/31 02:47:30;;;;;;;12.40;7.45;;;12.80;99.90;;;;;;5053771;28;20045;-66
2022/10/31 02:50:21;;;;;;;14.10;7.35;;;12.70;99.90;;;;;;5051544;28;20080;-66
2022/10/31 02:52:51;;;;;;;15.98;7.93;;;12.70;99.90;;;;;;5053754;28;20545;-66
2022/10/31 02:55:26;;;;;;;16.05;7.60;;;12.70;99.90;;;;;;5053382;28;20546;-66
2022/10/31 02:58:00;;;;;;;15.27;7.30;;;12.60;99.90;;;;;;5053832;28;20103;-66
2022/10/31 03:00:26;;;;;;;18.13;7.95;;;12.60;99.90;;;;;;5053423;28;20576;-66
2022/10/31 03:03:13;;;;;;;13.93;7.70;;;12.50;99.90;;;;;;5053805;28;20119;-66
2022/10/31 03:06:01;;;;;;;15.00;7.60;;;12.60;99.90;;;;;;5053358;28;20052;-66
2022/10/31 03:08:54;;;;;;;11.25;7.35;;;12.60;99.90;;;;;;5053518;28;20040;-66
2022/10/31 03:11:22;;;;;;;;;;;12.50;99.90;;;;;;5053934;28;20036;-66
2022/10/31 03:13:53;;;;;;;12.95;7.30;;;12.40;99.90;;;;;;5051706;28;19916;-66
2022/10/31 03:16:27;;;;;;;11.30;6.97;;;12.30;99.90;;;;;;5053425;28;20048;-66
2022/10/31 03:19:04;;;;;;;13.32;7.28;;;12.30;99.90;;;;;;5053479;28;20499;-66
2022/10/31 03:21:44;;;;;;;10.55;7.07;;;12.30;99.90;;;;;;5053327;28;20045;-66
2022/10/31 03:24:11;;;;;;;15.90;8.02;;;12.20;99.90;;;;;;5052951;28;20401;-66
2022/10/31 03:26:41;;;;;;;12.75;7.35;;;12.20;99.90;;;;;;5052997;28;20037;-66
2022/10/31 03:29:09;;;;;;;14.50;7.60;;;12.20;99.90;;;;;;5051904;28;20151;-66
2022/10/31 03:31:48;;;;;;;15.88;7.43;;;12.10;99.90;;;;;;5052969;28;20485;-66
2022/10/31 03:34:17;;;;;;;13.55;7.63;;;12.00;99.90;;;;;;5052818;28;20047;-66
2022/10/31 03:36:44;;;;;;;14.30;7.57;;;12.00;99.90;;;;;;5053233;28;20037;-66
2022/10/31 03:39:17;;;;;;;14.68;7.28;;;12.00;99.90;;;;;;5051406;28;20072;-66
2022/10/31 03:41:46;;;;;;;15.55;7.78;;;12.00;99.90;;;;;;5052871;28;20040;-66
2022/10/31 03:44:17;;;;;;;11.98;7.82;;;12.00;99.90;;;;;;5052422;28;20519;-66
2022/10/31 03:46:43;;;;;;;13.48;8.20;;;11.90;99.90;;;;;;5052779;28;20045;-66
2022/10/31 03:49:09;;;;;;;12.65;7.43;;;11.80;99.90;;;;;;5052615;28;20037;-66
2022/10/31 03:52:07;;;;;;;15.73;7.35;;;11.90;99.90;;;;;;5052635;28;20048;-66
2022/10/31 03:54:42;;;;;;;14.90;7.53;;;11.80;99.90;;;;;;5052068;28;20040;-66
2022/10/31 03:57:32;;;;;;;12.82;6.95;;;11.80;99.90;;;;;;5052776;28;20045;-66
2022/10/31 04:00:03;;;;;;;12.48;7.72;;;11.80;99.90;;;;;;5052299;28;20140;-66
2022/10/31 04:02:32;;;;;;;17.25;8.23;;;11.70;99.90;;;;;;5052299;28;20095;-67
2022/10/31 04:04:58;;;;;;;13.70;7.68;;;11.70;99.90;;;;;;5052133;28;20090;-66
2022/10/31 04:07:29;;;;;;;11.95;7.90;;;11.60;99.90;;;;;;5050760;28;20041;-66
2022/10/31 04:09:57;;;;;;;13.25;8.13;;;11.60;99.90;;;;;;5052446;28;20066;-66
2022/10/31 04:12:24;;;;;;;15.63;7.97;;;11.60;99.90;;;;;;5051343;28;20047;-66
2022/10/31 04:14:52;;;;;;;11.23;6.50;;;11.50;99.90;;;;;;5052137;28;20405;-66
2022/10/31 04:17:21;;;;;;;10.63;7.18;;;11.40;99.90;;;;;;5051732;28;20032;-66
2022/10/31 04:19:46;;;;;;;15.68;7.47;;;11.40;99.90;;;;;;5052129;28;20045;-67
2022/10/31 04:22:12;;;;;;;10.25;6.00;;;11.40;99.90;;;;;;5052095;28;20090;-66
2022/10/31 04:24:40;;;;;;;8.70;6.20;;;11.30;99.90;;;;;;5051911;28;20422;-66
2022/10/31 04:27:05;;;;;;;8.27;5.85;;;11.30;99.90;;;;;;5051856;28;20397;-66
2022/10/31 04:29:31;;;;;;;7.68;5.20;;;11.20;99.90;;;;;;5051933;28;20037;-66
2022/10/31 04:31:56;;;;;;;8.25;4.68;;;11.20;99.90;;;;;;5051980;28;20489;-66
2022/10/31 04:34:22;;;;;;;5.88;3.70;;;11.10;99.90;;;;;;5051789;28;20126;-66
2022/10/31 04:36:47;;;;;;;6.65;4.55;;;11.10;99.90;;;;;;5052048;28;20528;-66
2022/10/31 04:39:13;;;;;;;6.85;4.30;;;10.90;99.90;;;;;;5051829;28;20499;-66
2022/10/31 04:41:38;;;;;;;5.38;4.10;;;10.90;99.90;;;;;;5051577;28;20128;-66
2022/10/31 04:44:04;;;;;;;6.20;3.78;;;10.90;99.90;;;;;;5051523;28;20041;-66
2022/10/31 04:46:29;;;;;;;8.50;4.00;;;10.90;99.90;;;;;;5050146;28;20052;-66
2022/10/31 04:48:55;;;;;;;5.28;4.07;;;10.80;99.90;;;;;;5051105;28;20045;-66
2022/10/31 04:51:21;;;;;;;6.63;4.10;;;10.70;99.90;;;;;;5051763;28;20065;-66
2022/10/31 04:53:46;;;;;;;6.28;3.80;;;10.80;99.90;;;;;;5051064;28;20108;-66
2022/10/31 04:56:12;;;;;;;4.95;3.53;;;10.80;99.90;;;;;;5049957;28;20087;-66
2022/10/31 04:58:37;;;;;;;4.40;3.33;;;10.80;99.90;;;;;;5051112;28;20052;-66
2022/10/31 05:01:03;;;;;;;4.68;3.70;;;10.80;99.90;;;;;;5051175;28;20041;-66
2022/10/31 05:03:28;;;;;;;4.05;3.42;;;10.70;99.90;;;;;;5051288;28;20048;-67
2022/10/31 05:05:54;;;;;;;4.40;3.47;;;10.70;99.90;;;;;;5050901;28;20052;-66
2022/10/31 05:08:19;;;;;;;4.53;3.40;;;10.60;99.90;;;;;;5051109;28;20041;-66
2022/10/31 05:10:45;;;;;;;5.35;2.85;;;10.50;99.90;;;;;;5051419;28;20040;-66
2022/10/31 05:13:10;;;;;;;3.92;3.10;;;10.30;99.90;;;;;;5051348;28;20032;-66
2022/10/31 05:15:36;;;;;;;13.10;3.35;;;10.30;99.90;;;;;;5051024;28;20049;-66
2022/10/31 05:18:02;;;;;;;11.98;3.03;;;10.30;99.90;;;;;;5051197;28;20048;-66
2022/10/31 05:20:30;;;;;;;4.35;3.30;;;10.20;99.90;;;;;;5051300;28;20044;-66
2022/10/31 05:22:56;;;;;;;4.53;3.05;;;10.30;99.90;;;;;;5050979;28;20496;-66
2022/10/31 05:25:25;;;;;;;4.70;3.50;;;10.30;99.90;;;;;;5050991;28;20049;-66
2022/10/31 05:27:52;;;;;;;4.30;3.75;;;10.30;99.90;;;;;;5050924;28;20069;-66
2022/10/31 05:30:24;;;;;;;5.18;3.28;;;10.30;99.90;;;;;;5050865;28;20198;-66
2022/10/31 05:32:50;;;;;;;3.22;2.92;;;10.20;99.90;;;;;;5051034;28;20413;-66
2022/10/31 05:35:28;;;;;;;5.10;3.20;;;10.10;99.90;;;;;;5050735;28;20120;-66
2022/10/31 05:37:53;;;;;;;12.90;3.67;;;10.20;99.90;;;;;;5050995;28;20036;-66
2022/10/31 05:40:20;;;;;;;37.55;3.97;;;10.00;99.90;;;;;;5050659;28;20489;-66
2022/10/31 05:42:46;;;;;;;47.40;4.68;;;9.90;99.90;;;;;;5050600;28;20041;-66
2022/10/31 05:45:14;;;;;;;62.22;5.03;;;9.80;99.90;;;;;;5050627;28;20508;-66
2022/10/31 05:47:41;;;;;;;49.35;4.55;;;9.70;99.90;;;;;;5050838;28;20441;-66
2022/10/31 05:50:08;;;;;;;31.13;3.67;;;9.60;99.90;;;;;;5050846;28;20039;-66
2022/10/31 05:52:34;;;;;;;22.70;4.28;;;9.60;99.90;;;;;;5050970;28;20041;-66
2022/10/31 05:54:59;;;;;;;14.65;3.65;;;9.60;99.90;;;;;;5050357;28;20087;-66
2022/10/31 05:57:25;;;;;;;6.07;3.80;;;9.50;99.90;;;;;;5050318;28;20041;-66
2022/10/31 05:59:53;;;;;;;4.22;3.60;;;9.60;99.90;;;;;;5050466;28;20037;-66
2022/10/31 06:02:20;;;;;;;11.57;3.90;;;9.60;99.90;;;;;;5050592;28;20489;-66
2022/10/31 06:04:45;;;;;;;20.75;3.97;;;9.70;99.90;;;;;;5050552;28;20037;-66
2022/10/31 06:07:11;;;;;;;19.02;3.75;;;9.60;99.90;;;;;;5050785;28;20120;-66
2022/10/31 06:09:36;;;;;;;35.13;4.18;;;9.50;99.90;;;;;;5050553;28;20405;-66
2022/10/31 06:12:02;;;;;;;37.47;4.55;;;9.50;99.90;;;;;;5050231;28;20567;-66
2022/10/31 06:14:27;;;;;;;32.25;5.28;;;9.40;99.90;;;;;;5050413;28;20555;-66
2022/10/31 06:16:55;;;;;;;36.30;5.40;;;9.40;99.90;;;;;;5050618;28;20064;-66
2022/10/31 06:19:20;;;;;;;7.60;4.20;;;9.30;99.90;;;;;;5050337;28;20041;-66
2022/10/31 06:21:46;;;;;;;17.35;4.90;;;9.30;99.90;;;;;;5050448;28;20039;-66
2022/10/31 06:24:11;;;;;;;21.58;4.78;;;9.50;99.90;;;;;;5048272;28;20126;-66
2022/10/31 06:26:37;;;;;;;20.25;4.75;;;9.50;99.90;;;;;;5047265;28;20163;-66
2022/10/31 06:29:02;;;;;;;13.07;4.03;;;9.40;99.90;;;;;;5047151;28;20287;-66
2022/10/31 06:31:28;;;;;;;10.25;3.67;;;9.40;99.90;;;;;;5047593;28;20478;-66
2022/10/31 06:33:53;;;;;;;3.45;3.00;;;9.30;99.90;;;;;;5047701;28;20040;-66
2022/10/31 06:36:19;;;;;;;4.05;3.10;;;9.20;99.90;;;;;;5052861;28;20047;-66
2022/10/31 06:38:45;;;;;;;7.63;3.47;;;9.30;99.90;;;;;;5053634;28;20036;-66
2022/10/31 06:41:10;;;;;;;4.07;3.10;;;9.40;99.90;;;;;;5053527;28;20393;-66
2022/10/31 06:43:36;;;;;;;18.58;3.85;;;9.50;99.90;;;;;;5053004;28;20056;-66
2022/10/31 06:46:03;;;;;;;23.95;4.30;;;9.40;99.90;;;;;;5052696;28;20403;-67
2022/10/31 06:48:29;;;;;;;31.50;4.68;;;9.40;99.90;;;;;;5052350;28;20102;-67
2022/10/31 06:51:00;;;;;;;15.20;5.97;;;9.40;99.90;;;;;;5052663;28;20040;-67
2022/10/31 06:53:29;;;;;;;11.55;5.38;;;9.40;99.90;;;;;;5053721;28;20456;-67
2022/10/31 06:55:55;;;;;;;8.38;5.18;;;9.50;99.90;;;;;;5053804;28;20037;-67
2022/10/31 06:58:21;;;;;;;9.77;5.10;;;9.60;99.90;;;;;;5053764;28;20128;-67
2022/10/31 07:00:47;;;;;;;10.73;5.60;;;9.60;99.90;;;;;;5053866;28;20492;-67
2022/10/31 07:03:13;;;;;;;14.00;5.78;;;9.60;99.90;;;;;;5053699;28;20032;-67
2022/10/31 07:05:40;;;;;;;24.20;6.45;;;9.60;99.90;;;;;;5053379;28;20048;-67
2022/10/31 07:08:08;;;;;;;11.35;5.40;;;9.70;99.90;;;;;;5053249;28;20044;-67
2022/10/31 07:10:35;;;;;;;15.23;6.15;;;9.60;99.90;;;;;;5053508;28;20041;-67
2022/10/31 07:13:03;;;;;;;7.72;5.72;;;9.60;99.90;;;;;;5053579;28;20044;-67
2022/10/31 07:15:32;;;;;;;13.25;6.13;;;9.70;99.90;;;;;;5053244;28;20083;-67
2022/10/31 07:18:02;;;;;;;27.98;6.15;;;9.70;99.90;;;;;;5053492;28;20120;-67
2022/10/31 07:20:29;;;;;;;21.83;6.63;;;9.80;99.90;;;;;;5053140;28;20094;-66
2022/10/31 07:22:54;;;;;;;35.17;6.65;;;9.80;99.90;;;;;;5053083;28;20073;-66
2022/10/31 07:25:20;;;;;;;18.00;5.45;;;9.80;99.90;;;;;;5052860;28;20594;-67
2022/10/31 07:27:46;;;;;;;23.45;5.93;;;9.70;99.90;;;;;;5053098;28;20121;-67
2022/10/31 07:30:13;;;;;;;42.38;6.97;;;9.70;99.90;;;;;;5053313;28;20041;-66
2022/10/31 07:32:46;;;;;;;6.93;5.70;;;9.70;99.90;;;;;;5053134;28;20086;-66
2022/10/31 07:35:14;;;;;;;7.70;6.25;;;9.70;99.90;;;;;;5052621;28;20557;-66
2022/10/31 07:37:40;;;;;;;12.38;6.30;;;9.70;99.90;;;;;;5052735;28;20064;-66
2022/10/31 07:40:07;;;;;;;8.38;6.53;;;9.80;99.90;;;;;;5053197;28;20048;-69
2022/10/31 07:42:40;;;;;;;18.42;7.10;;;9.70;99.90;;;;;;5051658;28;20128;-67
2022/10/31 07:45:08;;;;;;;16.23;6.45;;;9.80;99.90;;;;;;5052670;28;20128;-66
2022/10/31 07:48:02;;;;;;;15.57;6.78;;;9.80;99.90;;;;;;5050807;28;20048;-66
2022/10/31 07:50:30;;;;;;;21.02;7.05;;;9.90;99.90;;;;;;5049798;28;20512;-67
2022/10/31 07:53:03;;;;;;;11.30;6.47;;;9.90;99.90;;;;;;5052799;28;20041;-67
2022/10/31 07:55:30;;;;;;;8.32;6.93;;;9.90;99.90;;;;;;5050976;28;20051;-67
2022/10/31 07:58:16;;;;;;;14.35;6.35;;;9.80;99.90;;;;;;5051188;28;20102;-69
2022/10/31 08:00:44;;;;;;;21.30;6.68;;;9.80;99.90;;;;;;5051292;28;20500;-69
2022/10/31 08:03:11;;;;;;;11.48;6.95;;;9.80;99.90;;;;;;5050799;28;20044;-70
2022/10/31 08:05:37;;;;;;;25.10;6.78;;;9.80;99.90;;;;;;5050738;28;20037;-70
2022/10/31 08:08:04;;;;;;;16.70;7.60;;;9.90;99.90;;;;;;5050190;28;20040;-69
2022/10/31 08:10:31;;;;;;;25.58;7.05;;;9.90;99.90;;;;;;5049003;28;20047;-69
2022/10/31 08:13:02;;;;;;;11.57;7.07;;;9.90;99.90;;;;;;5051929;28;20091;-69
2022/10/31 08:15:29;;;;;;;25.20;8.63;;;10.00;99.90;;;;;;5051791;28;20032;-70
2022/10/31 08:17:55;;;;;;;24.27;8.10;;;10.00;99.90;;;;;;5049772;28;20063;-70
2022/10/31 08:20:21;;;;;;;12.32;8.93;;;10.00;99.90;;;;;;5050434;28;20041;-69
2022/10/31 08:22:58;;;;;;;17.60;9.25;;;10.20;99.90;;;;;;5052045;28;20041;-68
2022/10/31 08:25:24;;;;;;;13.95;8.13;;;10.30;99.90;;;;;;5051799;28;20392;-69
2022/10/31 08:27:51;;;;;;;15.48;10.13;;;10.30;99.90;;;;;;5050875;28;20479;-68
2022/10/31 08:30:18;;;;;;;15.90;10.35;;;10.50;99.90;;;;;;5051547;28;20083;-67
2022/10/31 08:32:43;;;;;;;16.38;10.52;;;10.50;99.90;;;;;;5051592;28;20543;-67
2022/10/31 08:35:09;;;;;;;14.35;10.55;;;10.50;99.90;;;;;;5050145;28;20044;-67
2022/10/31 08:37:34;;;;;;;21.92;11.70;;;10.50;99.90;;;;;;5051841;28;20516;-67
2022/10/31 08:40:00;;;;;;;19.50;12.43;;;10.60;99.90;;;;;;5051827;28;20048;-67
2022/10/31 08:42:25;;;;;;;20.95;12.43;;;10.70;99.90;;;;;;5051837;28;20098;-66
2022/10/31 08:44:51;;;;;;;22.65;13.13;;;10.80;99.90;;;;;;5051577;28;20605;-66
2022/10/31 08:47:17;;;;;;;20.20;11.95;;;10.80;99.90;;;;;;5051590;28;20041;-66
2022/10/31 08:49:42;;;;;;;20.75;12.65;;;10.90;99.90;;;;;;5051146;28;20087;-66
2022/10/31 08:52:08;;;;;;;23.73;13.45;;;11.00;99.90;;;;;;5050503;28;20513;-66
2022/10/31 08:54:33;;;;;;;23.40;14.23;;;11.00;99.90;;;;;;5050933;28;20120;-66
2022/10/31 08:56:59;;;;;;;21.70;13.27;;;11.00;99.90;;;;;;5050208;28;20052;-66
2022/10/31 08:59:24;;;;;;;22.20;13.85;;;11.00;99.90;;;;;;5049804;28;20056;-66
2022/10/31 09:01:50;;;;;;;21.23;13.25;;;11.10;99.90;;;;;;5051543;28;20045;-66
2022/10/31 09:04:15;;;;;;;24.02;14.63;;;11.10;99.90;;;;;;5051226;28;20044;-66
2022/10/31 09:06:41;;;;;;;26.73;14.40;;;11.20;99.90;;;;;;5050223;28;20041;-66
2022/10/31 09:09:07;;;;;;;25.40;14.45;;;11.30;99.90;;;;;;5051241;28;20047;-66
2022/10/31 09:11:32;;;;;;;23.48;13.55;;;11.30;99.90;;;;;;5051517;28;20045;-66
2022/10/31 09:13:58;;;;;;;29.23;14.93;;;11.40;99.90;;;;;;5051005;28;20048;-67
2022/10/31 09:16:23;;;;;;;25.73;15.45;;;11.50;99.90;;;;;;5051397;28;20045;-66
2022/10/31 09:18:49;;;;;;;25.48;15.27;;;11.50;99.90;;;;;;5051024;28;20493;-67
2022/10/31 09:21:14;;;;;;;24.60;14.70;;;11.50;99.90;;;;;;5051297;28;20040;-66
2022/10/31 09:23:40;;;;;;;25.98;15.07;;;11.60;99.90;;;;;;5049931;28;20052;-66
2022/10/31 09:26:06;;;;;;;29.98;15.13;;;11.60;99.90;;;;;;5049449;28;20053;-66
2022/10/31 09:28:32;;;;;;;25.00;15.10;;;11.60;99.90;;;;;;5051101;28;20051;-67
2022/10/31 09:30:57;;;;;;;22.00;14.45;;;11.70;99.90;;;;;;5049614;28;20129;-66
2022/10/31 09:33:23;;;;;;;24.70;14.63;;;11.70;99.90;;;;;;5050979;28;20095;-66
2022/10/31 09:35:49;;;;;;;23.10;14.38;;;11.80;99.90;;;;;;5050532;28;20052;-66
2022/10/31 09:38:19;;;;;;;22.45;14.05;;;11.80;99.90;;;;;;5050794;28;20101;-67
2022/10/31 09:40:47;;;;;;;23.85;14.48;;;11.80;99.90;;;;;;5051003;28;20052;-66
2022/10/31 09:43:42;;;;;;;30.05;16.27;;;11.90;99.90;;;;;;5050742;28;20646;-66
2022/10/31 09:46:23;;;;;;;28.25;14.45;;;11.90;99.90;;;;;;5049371;28;20045;-66
2022/10/31 09:49:09;;;;;;;31.35;16.35;;;12.00;99.90;;;;;;5050589;28;20120;-66
2022/10/31 09:51:40;;;;;;;27.27;15.48;;;12.10;99.90;;;;;;5050875;28;20036;-66
2022/10/31 09:54:31;;;;;;;24.23;15.30;;;12.10;99.90;;;;;;5050697;28;20120;-67
2022/10/31 09:57:00;;;;;;;29.38;16.15;;;12.20;99.90;;;;;;5050659;28;20037;-66
2022/10/31 09:59:33;;;;;;;30.33;16.55;;;12.30;99.90;;;;;;5050738;28;20048;-70
2022/10/31 10:02:45;;;;;;;27.08;15.85;;;12.40;99.90;;;;;;5049396;28;20037;-71
2022/10/31 10:05:21;;;;;;;31.85;16.52;;;12.40;99.90;;;;;;5043276;28;20049;-72
2022/10/31 10:08:01;;;;;;;33.60;16.77;;;12.50;99.90;;;;;;5049127;28;20393;-72
2022/10/31 10:10:29;;;;;;;35.97;17.67;;;12.50;99.90;;;;;;5051077;28;20036;-70
2022/10/31 10:13:14;;;;;;;30.90;16.30;;;12.60;99.90;;;;;;5053319;28;20397;-70
2022/10/31 10:16:08;;;;;;;31.30;17.17;;;12.70;99.90;;;;;;5054332;28;20048;-70
2022/10/31 10:18:55;;;;;;;32.10;17.05;;;12.80;99.90;;;;;;5037573;28;20060;-70
2022/10/31 10:21:28;;;;;;;27.67;16.00;;;12.80;99.90;;;;;;5053079;28;20044;-70
2022/10/31 10:24:10;;;;;;;30.90;16.58;;;12.90;99.90;;;;;;5053771;28;20493;-70
2022/10/31 10:26:54;;;;;;;29.75;16.80;;;13.00;99.90;;;;;;5052900;28;20041;-70
2022/10/31 10:29:29;;;;;;;31.58;15.93;;;13.10;99.90;;;;;;5052484;28;20413;-71
2022/10/31 10:31:59;;;;;;;34.22;16.42;;;13.10;99.90;;;;;;5054316;28;20132;-70
2022/10/31 10:34:34;;;;;;;30.70;15.30;;;13.20;99.90;;;;;;5052299;28;20037;-70
2022/10/31 10:37:08;;;;;;;28.77;15.57;;;13.20;99.90;;;;;;5052754;28;20520;-68
2022/10/31 10:39:43;;;;;;;27.38;15.52;;;13.30;99.90;;;;;;5054015;28;20052;-69
2022/10/31 10:47:58;;;;;;;28.67;14.82;;;13.40;99.90;;;;;;5053966;28;20060;-66
2022/10/31 10:50:35;;;;;;;27.67;14.45;;;13.40;99.90;;;;;;5053280;28;20052;-66
2022/10/31 10:53:35;;;;;;;29.98;15.38;;;13.40;99.90;;;;;;5052537;28;20041;-66
2022/10/31 10:56:37;;;;;;;28.33;14.90;;;13.50;99.90;;;;;;5052169;28;20044;-66
2022/10/31 10:59:03;;;;;;;28.50;14.68;;;13.50;99.90;;;;;;5045008;28;20048;-66
2022/10/31 11:01:29;;;;;;;30.52;15.07;;;13.50;99.90;;;;;;5052259;28;20037;-66
2022/10/31 11:03:55;;;;;;;28.70;14.65;;;13.60;99.90;;;;;;5053540;28;20103;-66
2022/10/31 11:06:25;;;;;;;29.98;13.35;;;13.60;99.90;;;;;;5053465;28;20486;-66
2022/10/31 11:08:52;;;;;;;28.80;14.60;;;13.70;99.90;;;;;;5051972;28;20037;-66
2022/10/31 11:11:17;;;;;;;28.65;13.50;;;13.70;99.90;;;;;;5053417;28;20041;-66
2022/10/31 11:13:49;;;;;;;29.38;13.35;;;13.80;99.90;;;;;;5053499;28;20039;-66
2022/10/31 11:16:37;;;;;;;24.27;12.82;;;13.80;99.90;;;;;;5053376;28;20082;-66
2022/10/31 11:19:16;;;;;;;23.70;12.55;;;13.80;99.90;;;;;;5053337;28;20041;-65
2022/10/31 11:21:44;;;;;;;25.67;12.35;;;13.90;99.90;;;;;;5053294;28;20044;-66
2022/10/31 11:24:09;;;;;;;24.83;11.38;;;13.90;99.90;;;;;;5052360;28;20120;-66
2022/10/31 11:26:39;;;;;;;23.20;11.60;;;13.90;99.90;;;;;;5053589;28;20112;-66
2022/10/31 11:29:11;;;;;;;22.45;10.98;;;13.90;99.90;;;;;;5053254;28;20052;-66
2022/10/31 11:31:37;;;;;;;;;;;13.90;99.90;;;;;;5053757;28;20076;-65
2022/10/31 11:34:07;;;;;;;25.42;11.10;;;14.00;99.90;;;;;;5052662;28;19971;-66
2022/10/31 11:36:36;;;;;;;23.23;12.57;;;14.00;99.90;;;;;;5051881;28;20091;-66
2022/10/31 11:39:04;;;;;;;23.63;10.98;;;14.00;99.90;;;;;;5052994;28;20045;-66
2022/10/31 11:41:35;;;;;;;20.20;11.00;;;14.10;99.90;;;;;;5053186;28;20045;-66
2022/10/31 11:44:03;;;;;;;25.42;12.80;;;14.10;99.90;;;;;;5052709;28;20124;-66
2022/10/31 11:46:34;;;;;;;20.85;11.18;;;14.20;99.90;;;;;;5051544;28;20052;-68
2022/10/31 11:49:00;;;;;;;22.73;11.93;;;14.20;99.90;;;;;;5052745;28;20119;-68
2022/10/31 11:51:30;;;;;;;21.98;11.45;;;14.30;99.90;;;;;;5052962;28;20077;-68
2022/10/31 11:53:57;;;;;;;23.20;10.23;;;14.30;99.90;;;;;;5052368;28;20535;-68
2022/10/31 11:56:24;;;;;;;22.63;11.30;;;14.30;99.90;;;;;;5052802;28;20036;-68
2022/10/31 11:59:14;;;;;;;21.70;9.75;;;14.40;99.90;;;;;;5052444;28;20102;-68
2022/10/31 12:01:45;;;;;;;24.35;11.45;;;14.40;99.90;;;;;;5051015;28;20456;-69
2022/10/31 12:04:12;;;;;;;23.95;10.65;;;14.40;99.90;;;;;;5051257;28;20048;-68
2022/10/31 12:06:40;;;;;;;22.42;10.10;;;14.40;99.90;;;;;;5052547;28;20044;-69
2022/10/31 12:09:21;;;;;;;22.02;10.85;;;14.50;99.90;;;;;;5051017;28;20115;-68
2022/10/31 12:12:12;;;;;;;25.10;12.35;;;14.50;99.90;;;;;;5052148;28;20102;-68
2022/10/31 12:15:04;;;;;;;22.98;11.60;;;14.50;99.90;;;;;;5052204;28;20043;-68
2022/10/31 12:17:54;;;;;;;23.33;11.38;;;14.60;99.90;;;;;;5052144;28;20048;-68
2022/10/31 12:20:31;;;;;;;22.83;11.25;;;14.60;99.90;;;;;;5051120;28;20052;-68
2022/10/31 12:23:10;;;;;;;22.58;11.60;;;14.60;99.90;;;;;;5050764;28;20041;-69
2022/10/31 12:25:41;;;;;;;21.88;11.05;;;14.60;99.90;;;;;;5051934;28;20136;-68
2022/10/31 12:28:21;;;;;;;20.27;11.18;;;14.70;99.90;;;;;;5049966;28;20041;-68
2022/10/31 12:30:58;;;;;;;22.42;11.55;;;14.70;99.90;;;;;;5051798;28;20689;-68
2022/10/31 12:33:51;;;;;;;23.75;11.40;;;14.70;99.90;;;;;;5051282;28;20083;-69
2022/10/31 12:36:38;;;;;;;21.25;11.18;;;14.70;99.90;;;;;;5050447;28;20040;-68
2022/10/31 12:39:23;;;;;;;22.67;12.25;;;14.80;99.90;;;;;;5050759;28;20048;-69
2022/10/31 12:42:09;;;;;;;26.52;10.82;;;14.80;99.90;;;;;;5050154;28;20049;-69
2022/10/31 12:45:02;;;;;;;24.10;10.10;;;14.80;99.90;;;;;;5050254;28;20088;-70
2022/10/31 12:47:38;;;;;;;21.25;9.38;;;14.90;99.90;;;;;;5049993;28;20047;-70
2022/10/31 12:50:23;;;;;;;15.82;9.35;;;14.90;99.90;;;;;;5050226;28;20040;-70
2022/10/31 12:52:59;;;;;;;21.23;9.32;;;14.90;99.90;;;;;;5050471;28;20392;-70
2022/10/31 12:55:49;;;;;;;16.15;8.95;;;15.00;99.90;;;;;;5051198;28;20519;-69
2022/10/31 12:58:40;;;;;;;20.08;8.00;;;15.10;99.90;;;;;;5051347;28;20045;-69
2022/10/31 13:01:22;;;;;;;21.85;8.80;;;15.00;99.90;;;;;;5049958;28;20060;-70